createdAt,value
2019-04-20T00:00:48.857Z,103129.02
2019-04-20T00:03:14.271Z,103129.77
2019-04-20T00:05:43.416Z,103132.77
2019-04-20T00:08:16.701Z,103126.67
2019-04-20T00:10:52.274Z,103128.51
2019-04-20T00:13:27.487Z,103125.42
2019-04-20T00:15:43.011Z,103119.03
2019-04-20T00:18:12.188Z,103120.01
2019-04-20T00:20:43.845Z,103114.36
2019-04-20T00:23:27.806Z,103120.42
2019-04-20T00:26:14.654Z,103117.13
2019-04-20T00:28:55.876Z,103115.74
2019-04-20T00:31:24.811Z,103112.34
2019-04-20T00:33:48.198Z,103115.53
2019-04-20T00:36:05.701Z,102999.72
2019-04-20T00:38:40.821Z,103110.75
2019-04-20T00:41:07.502Z,103110.67
2019-04-20T00:43:37.299Z,103103.30
2019-04-20T00:46:10.366Z,103106.72
2019-04-20T00:48:46.214Z,103102.48
2019-04-20T00:51:23.912Z,103100.13
2019-04-20T00:53:39.712Z,103104.40
2019-04-20T00:56:03.931Z,103098.64
2019-04-20T00:58:41.010Z,103097.28
2019-04-20T01:01:20.615Z,103109.23
2019-04-20T01:03:46.186Z,103102.94
2019-04-20T01:06:24.103Z,103098.03
2019-04-20T01:08:40.122Z,103104.43
2019-04-20T01:11:08.490Z,103100.38
2019-04-20T01:13:42.086Z,103103.67
2019-04-20T01:16:19.678Z,103098.89
2019-04-20T01:18:36.925Z,103102.28
2019-04-20T01:21:13.049Z,103100.48
2019-04-20T01:23:44.924Z,103106.88
2019-04-20T01:26:10.875Z,103108.57
2019-04-20T01:28:51.207Z,103100.15
2019-04-20T01:31:17.761Z,103101.00
2019-04-20T01:33:47.022Z,103103.69
2019-04-20T01:36:27.893Z,103103.02
2019-04-20T01:38:55.445Z,103104.40
2019-04-20T01:41:05.628Z,103097.91
2019-04-20T01:43:33.820Z,103098.66
2019-04-20T01:46:11.176Z,103098.65
2019-04-20T01:48:36.609Z,103097.89
2019-04-20T01:51:13.084Z,103097.35
2019-04-20T01:53:56.791Z,103097.14
2019-04-20T01:56:18.322Z,103095.86
2019-04-20T01:58:52.149Z,103093.72
2019-04-20T02:01:23.886Z,103096.67
2019-04-20T02:03:53.788Z,103100.17
2019-04-20T02:06:25.111Z,103102.52
2019-04-20T02:08:58.401Z,103099.55
2019-04-20T02:11:30.482Z,103108.46
2019-04-20T02:13:57.309Z,103107.66
2019-04-20T02:16:28.818Z,103099.12
2019-04-20T02:19:10.902Z,103106.34
2019-04-20T02:21:37.884Z,103108.34
2019-04-20T02:23:58.018Z,103107.57
2019-04-20T02:26:23.889Z,103115.13
2019-04-20T02:29:19.007Z,103115.73
2019-04-20T02:32:08.804Z,103118.90
2019-04-20T02:42:24.657Z,103116.48
2019-04-20T02:45:11.403Z,103119.33
2019-04-20T02:47:28.033Z,103116.66
2019-04-20T02:49:50.900Z,103117.91
2019-04-20T02:52:21.104Z,103117.78
2019-04-20T02:54:54.396Z,103113.06
2019-04-20T02:57:22.460Z,103110.91
2019-04-20T03:00:03.257Z,103109.61
2019-04-20T03:02:04.171Z,103112.66
2019-04-20T03:04:29.445Z,103108.29
2019-04-20T03:07:06.272Z,103105.92
2019-04-20T03:09:40.011Z,103108.02
2019-04-20T03:12:10.610Z,103113.28
2019-04-20T03:14:30.475Z,103123.03
2019-04-20T03:17:10.372Z,103118.96
2019-04-20T03:19:31.342Z,103117.87
2019-04-20T03:22:08.825Z,103117.60
2019-04-20T03:24:43.666Z,103121.58
2019-04-20T03:27:07.490Z,103120.44
2019-04-20T03:29:46.953Z,103127.83
2019-04-20T03:32:40.329Z,103122.83
2019-04-20T03:37:22.214Z,103121.66
2019-04-20T03:39:40.559Z,103130.66
2019-04-20T03:41:56.724Z,103129.48
2019-04-20T03:44:28.747Z,103128.27
2019-04-20T03:46:59.697Z,103121.27
2019-04-20T03:49:48.343Z,103123.88
2019-04-20T03:52:28.361Z,103120.47
2019-04-20T03:54:55.370Z,103114.75
2019-04-20T03:57:47.027Z,103116.85
2019-04-20T04:00:31.884Z,103109.62
2019-04-20T04:05:44.624Z,103123.50
2019-04-20T04:08:12.239Z,103117.19
2019-04-20T04:10:52.439Z,103116.52
2019-04-20T04:13:07.252Z,103123.45
2019-04-20T04:15:42.711Z,103119.38
2019-04-20T04:18:13.868Z,103123.68
2019-04-20T04:20:44.308Z,103121.47
2019-04-20T04:23:22.043Z,103119.09
2019-04-20T04:25:55.908Z,103032.23
2019-04-20T04:28:21.293Z,103119.44
2019-04-20T04:30:59.953Z,103121.47
2019-04-20T04:33:45.717Z,103121.47
2019-04-20T04:35:53.781Z,103128.47
2019-04-20T04:38:31.708Z,103123.97
2019-04-20T04:41:06.440Z,103125.14
2019-04-20T04:43:29.458Z,103128.03
2019-04-20T04:45:36.992Z,103134.39
2019-04-20T04:48:06.770Z,103137.04
2019-04-20T04:50:44.565Z,103135.09
2019-04-20T04:56:35.514Z,103130.08
2019-04-20T04:59:04.383Z,103130.83
2019-04-20T05:01:35.524Z,103124.81
2019-04-20T05:04:25.149Z,103120.32
2019-04-20T05:06:48.129Z,103126.12
2019-04-20T05:09:05.842Z,103129.99
2019-04-20T05:11:34.970Z,103128.48
2019-04-20T05:14:07.462Z,103125.24
2019-04-20T05:16:49.980Z,103129.98
2019-04-20T05:19:23.588Z,103130.52
2019-04-20T05:22:01.391Z,103134.73
2019-04-20T05:24:25.611Z,103137.31
2019-04-20T05:27:01.954Z,103136.15
2019-04-20T05:29:17.593Z,103141.30
2019-04-20T05:31:49.284Z,103147.60
2019-04-20T05:34:33.264Z,103140.12
2019-04-20T05:37:06.533Z,103149.34
2019-04-20T05:39:32.951Z,103143.76
2019-04-20T05:41:56.261Z,103150.62
2019-04-20T05:44:25.518Z,103159.23
2019-04-20T05:47:05.500Z,103155.69
2019-04-20T05:49:30.388Z,103138.73
2019-04-20T05:52:02.602Z,103133.51
2019-04-20T05:57:05.548Z,103141.78
2019-04-20T05:59:37.524Z,103131.63
2019-04-20T06:02:06.128Z,103132.11
2019-04-20T06:04:49.109Z,103137.33
2019-04-20T06:07:02.416Z,103143.59
2019-04-20T06:09:34.209Z,103142.64
2019-04-20T06:12:12.955Z,103135.56
2019-04-20T06:14:33.179Z,103137.30
2019-04-20T06:17:11.350Z,103142.57
2019-04-20T06:19:53.162Z,103139.42
2019-04-20T06:22:24.693Z,103146.16
2019-04-20T06:25:19.178Z,103155.06
2019-04-20T06:27:35.287Z,103145.13
2019-04-20T06:29:59.261Z,103144.78
2019-04-20T06:33:16.100Z,103032.64
2019-04-20T06:36:05.992Z,103125.44
2019-04-20T06:38:26.653Z,103143.59
2019-04-20T06:43:11.341Z,103149.70
2019-04-20T06:45:51.355Z,103142.61
2019-04-20T06:48:13.511Z,103147.61
2019-04-20T06:50:41.512Z,103150.32
2019-04-20T06:53:28.576Z,103146.76
2019-04-20T06:56:01.136Z,103152.06
2019-04-20T06:58:42.043Z,103154.54
2019-04-20T07:00:58.324Z,103147.05
2019-04-20T07:03:40.932Z,103143.92
2019-04-20T07:06:06.445Z,103148.21
2019-04-20T07:08:41.080Z,103145.53
2019-04-20T07:11:02.151Z,103141.23
2019-04-20T07:13:19.310Z,103143.20
2019-04-20T07:15:50.819Z,103144.39
2019-04-20T07:18:30.612Z,103146.75
2019-04-20T07:21:25.160Z,103142.24
2019-04-20T07:23:49.757Z,103147.78
2019-04-20T07:26:22.286Z,103146.78
2019-04-20T07:28:54.408Z,103156.09
2019-04-20T07:31:17.246Z,103151.23
2019-04-20T07:33:48.001Z,103151.96
2019-04-20T07:36:22.567Z,103157.96
2019-04-20T07:38:46.651Z,103154.85
2019-04-20T07:41:23.399Z,103162.20
2019-04-20T07:43:57.483Z,103161.50
2019-04-20T07:46:37.650Z,103155.36
2019-04-20T07:48:42.285Z,103162.19
2019-04-20T07:51:06.588Z,103162.51
2019-04-20T07:53:40.296Z,103151.07
2019-04-20T07:56:18.560Z,103151.14
2019-04-20T07:58:35.791Z,103156.09
2019-04-20T08:01:24.221Z,103154.98
2019-04-20T08:03:52.917Z,103152.45
2019-04-20T08:06:26.003Z,103150.02
2019-04-20T08:09:05.327Z,103152.63
2019-04-20T08:11:41.339Z,103152.33
2019-04-20T08:14:14.764Z,103155.77
2019-04-20T08:17:09.875Z,103150.19
2019-04-20T08:19:04.134Z,103139.39
2019-04-20T08:21:40.585Z,103141.29
2019-04-20T08:24:07.410Z,103146.29
2019-04-20T08:26:26.916Z,103148.27
2019-04-20T08:29:05.163Z,103147.17
2019-04-20T08:32:08.500Z,103145.03
2019-04-20T08:34:53.789Z,103151.01
2019-04-20T08:37:13.513Z,103146.89
2019-04-20T08:39:51.111Z,103148.20
2019-04-20T08:42:19.809Z,103138.91
2019-04-20T08:47:27.441Z,103135.03
2019-04-20T08:50:17.271Z,103134.55
2019-04-20T08:55:10.629Z,103138.98
2019-04-20T08:57:20.477Z,103125.35
2019-04-20T08:59:51.060Z,103136.78
2019-04-20T09:02:20.306Z,103127.16
2019-04-20T09:04:54.065Z,103127.16
2019-04-20T09:07:23.243Z,103126.94
2019-04-20T09:10:10.071Z,103128.52
2019-04-20T09:12:36.915Z,103122.38
2019-04-20T09:14:48.902Z,103126.72
2019-04-20T09:17:32.483Z,103130.91
2019-04-20T09:20:06.324Z,103126.53
2019-04-20T09:22:42.861Z,103131.00
2019-04-20T09:25:36.535Z,103132.20
2019-04-20T09:27:40.800Z,103117.58
2019-04-20T09:30:16.043Z,103115.48
2019-04-20T09:32:48.518Z,103112.77
2019-04-20T09:35:28.001Z,103114.86
2019-04-20T09:38:12.188Z,103118.39
2019-04-20T09:40:40.262Z,103122.00
2019-04-20T09:43:00.265Z,103109.72
2019-04-20T09:45:39.936Z,103117.58
2019-04-20T09:48:11.635Z,103108.63
2019-04-20T09:50:55.020Z,103110.43
2019-04-20T09:53:19.782Z,103104.55
2019-04-20T09:55:50.629Z,103101.98
2019-04-20T09:58:15.395Z,103106.81
2019-04-20T10:00:53.895Z,103096.42
2019-04-20T10:03:12.944Z,103104.23
2019-04-20T10:05:41.295Z,103103.66
2019-04-20T10:08:09.996Z,103097.51
2019-04-20T10:10:42.692Z,103098.37
2019-04-20T10:13:09.371Z,103090.22
2019-04-20T10:15:37.623Z,103086.77
2019-04-20T10:18:05.858Z,103084.95
2019-04-20T10:20:36.893Z,103096.33
2019-04-20T10:23:04.644Z,103094.98
2019-04-20T10:25:32.986Z,103089.46
2019-04-20T10:28:01.424Z,103082.58
2019-04-20T10:30:30.603Z,103084.93
2019-04-20T10:32:59.512Z,103085.64
2019-04-20T10:35:27.909Z,103078.62
2019-04-20T10:38:03.505Z,103088.50
2019-04-20T10:40:43.971Z,103081.44
2019-04-20T10:43:03.180Z,103075.81
2019-04-20T10:45:32.976Z,103075.23
2019-04-20T10:48:01.611Z,103071.61
2019-04-20T10:50:31.247Z,103068.85
2019-04-20T10:52:59.781Z,103080.25
2019-04-20T10:55:29.054Z,103068.67
2019-04-20T10:57:57.769Z,103069.27
2019-04-20T11:00:41.790Z,103067.94
2019-04-20T11:03:10.718Z,103072.78
2019-04-20T11:05:40.545Z,103064.38
2019-04-20T11:08:10.551Z,103056.30
2019-04-20T11:10:50.851Z,103057.48
2019-04-20T11:13:11.728Z,103050.22
2019-04-20T11:15:40.365Z,103056.99
2019-04-20T11:18:09.508Z,103048.56
2019-04-20T11:20:39.343Z,103050.80
2019-04-20T11:23:08.488Z,103046.05
2019-04-20T11:25:37.980Z,103039.06
2019-04-20T11:28:06.267Z,103039.67
2019-04-20T11:30:36.166Z,103032.69
2019-04-20T11:33:04.498Z,103037.48
2019-04-20T11:35:37.590Z,103034.11
2019-04-20T11:38:02.972Z,103031.56
2019-04-20T11:40:31.262Z,103030.09
2019-04-20T11:42:59.639Z,103038.23
2019-04-20T11:45:28.802Z,103028.39
2019-04-20T11:47:57.827Z,103033.73
2019-04-20T11:50:27.490Z,103026.72
2019-04-20T11:52:57.195Z,103021.62
2019-04-20T11:55:26.608Z,103024.70
2019-04-20T11:57:56.218Z,103022.16
2019-04-20T12:00:42.305Z,103014.85
2019-04-20T12:03:16.085Z,103012.28
2019-04-20T12:05:44.541Z,103017.59
2019-04-20T12:08:09.406Z,103004.11
2019-04-20T12:10:39.157Z,103007.23
2019-04-20T12:13:07.923Z,102998.80
2019-04-20T12:15:38.615Z,102991.78
2019-04-20T12:18:07.524Z,102991.78
2019-04-20T12:20:36.631Z,102992.02
2019-04-20T12:23:06.329Z,102982.17
2019-04-20T12:25:36.698Z,102967.53
2019-04-20T12:28:05.324Z,102983.89
2019-04-20T12:30:33.596Z,102980.77
2019-04-20T12:33:03.815Z,102978.28
2019-04-20T12:35:32.093Z,102980.55
2019-04-20T12:38:01.000Z,102967.67
2019-04-20T12:40:30.161Z,102976.11
2019-04-20T12:42:59.236Z,102965.42
2019-04-20T12:45:27.473Z,102972.17
2019-04-20T12:47:55.742Z,102964.84
2019-04-20T12:50:23.946Z,102963.72
2019-04-20T12:52:52.575Z,102959.53
2019-04-20T12:55:20.953Z,102963.75
2019-04-20T12:57:50.300Z,102970.23
2019-04-20T13:00:19.482Z,102961.24
2019-04-20T13:02:49.407Z,102952.53
2019-04-20T13:05:17.760Z,102970.53
2019-04-20T13:07:49.267Z,102954.20
2019-04-20T13:10:15.934Z,102953.62
2019-04-20T13:12:52.299Z,102952.23
2019-04-20T13:15:36.439Z,102955.89
2019-04-20T13:18:05.509Z,102949.13
2019-04-20T13:20:34.107Z,102940.12
2019-04-20T13:23:03.912Z,102937.63
2019-04-20T13:25:32.888Z,102937.36
2019-04-20T13:28:01.279Z,102932.57
2019-04-20T13:30:30.076Z,102927.22
2019-04-20T13:32:59.420Z,102928.05
2019-04-20T13:35:29.839Z,102924.95
2019-04-20T13:37:58.742Z,102915.09
2019-04-20T13:40:27.988Z,102912.00
2019-04-20T13:42:56.244Z,102922.11
2019-04-20T13:45:24.759Z,102912.00
2019-04-20T13:47:53.051Z,102915.95
2019-04-20T13:50:22.120Z,102913.98
2019-04-20T13:52:51.481Z,102907.52
2019-04-20T13:55:23.418Z,102903.59
2019-04-20T13:57:52.017Z,102897.41
2019-04-20T14:00:34.559Z,102900.75
2019-04-20T14:03:14.471Z,102900.48
2019-04-20T14:05:43.494Z,102897.95
2019-04-20T14:08:13.484Z,102896.24
2019-04-20T14:10:42.416Z,102893.17
2019-04-20T14:13:16.544Z,102897.63
2019-04-20T14:15:40.893Z,102888.38
2019-04-20T14:18:09.247Z,102888.04
2019-04-20T14:20:38.169Z,102880.72
2019-04-20T14:23:07.345Z,102885.50
2019-04-20T14:25:36.737Z,102885.70
2019-04-20T14:28:05.027Z,102879.23
2019-04-20T14:30:33.413Z,102875.03
2019-04-20T14:33:02.916Z,102870.53
2019-04-20T14:35:32.644Z,102869.43
2019-04-20T14:38:01.689Z,102875.31
2019-04-20T14:40:30.355Z,102879.22
2019-04-20T14:43:00.166Z,102864.91
2019-04-20T14:45:28.891Z,102868.56
2019-04-20T14:47:57.510Z,102869.95
2019-04-20T14:50:25.810Z,102871.91
2019-04-20T14:52:54.049Z,102873.27
2019-04-20T14:55:22.916Z,102862.84
2019-04-20T14:57:53.208Z,102854.41
2019-04-20T15:00:35.452Z,102857.45
2019-04-20T15:03:21.951Z,102860.52
2019-04-20T15:05:50.921Z,102856.55
2019-04-20T15:08:20.881Z,102859.10
2019-04-20T15:10:49.136Z,102847.88
2019-04-20T15:13:17.316Z,102849.50
2019-04-20T15:15:46.422Z,102848.92
2019-04-20T15:18:17.616Z,102846.39
2019-04-20T15:20:48.014Z,102846.07
2019-04-20T15:23:21.566Z,102844.92
2019-04-20T15:25:50.614Z,102843.51
2019-04-20T15:28:18.974Z,102840.91
2019-04-20T15:30:47.960Z,102838.33
2019-04-20T15:33:16.979Z,102833.25
2019-04-20T15:35:46.142Z,102831.85
2019-04-20T15:38:15.383Z,102833.55
2019-04-20T15:40:44.810Z,102826.82
2019-04-20T15:43:17.426Z,102826.00
2019-04-20T15:45:43.488Z,102825.97
2019-04-20T15:48:12.179Z,102825.92
2019-04-20T15:50:41.362Z,102818.59
2019-04-20T15:53:09.577Z,102815.20
2019-04-20T15:55:40.228Z,102814.62
2019-04-20T15:58:08.405Z,102816.55
2019-04-20T16:00:38.028Z,102819.90
2019-04-20T16:03:09.527Z,102815.70
2019-04-20T16:05:56.685Z,102814.52
2019-04-20T16:08:36.726Z,102815.89
2019-04-20T16:11:06.863Z,102807.41
2019-04-20T16:13:39.609Z,102813.23
2019-04-20T16:16:05.961Z,102811.77
2019-04-20T16:18:34.962Z,102808.36
2019-04-20T16:21:07.985Z,102805.80
2019-04-20T16:23:35.096Z,102808.30
2019-04-20T16:26:05.923Z,102802.40
2019-04-20T16:28:35.387Z,102799.30
2019-04-20T16:31:07.882Z,102793.36
2019-04-20T16:33:34.530Z,102788.04
2019-04-20T16:36:04.699Z,102786.33
2019-04-20T16:38:33.135Z,102788.83
2019-04-20T16:41:02.189Z,102783.16
2019-04-20T16:43:37.366Z,102785.93
2019-04-20T16:46:01.390Z,102781.16
2019-04-20T16:48:30.391Z,102782.25
2019-04-20T16:50:58.972Z,102708.08
2019-04-20T16:53:27.179Z,102772.89
2019-04-20T16:55:56.774Z,102768.67
2019-04-20T16:58:26.032Z,102776.44
2019-04-20T17:00:55.899Z,102761.87
2019-04-20T17:03:37.292Z,102761.27
2019-04-20T17:05:54.353Z,102756.17
2019-04-20T17:08:22.930Z,102758.89
2019-04-20T17:10:51.720Z,102763.02
2019-04-20T17:13:32.958Z,102759.09
2019-04-20T17:15:49.998Z,102763.48
2019-04-20T17:18:19.315Z,102759.44
2019-04-20T17:20:48.402Z,102758.27
2019-04-20T17:23:17.725Z,102761.88
2019-04-20T17:25:46.182Z,102757.05
2019-04-20T17:28:33.096Z,102758.96
2019-04-20T17:31:09.261Z,102754.45
2019-04-20T17:33:58.151Z,102754.60
2019-04-20T17:36:21.461Z,102754.24
2019-04-20T17:38:52.548Z,102748.84
2019-04-20T17:41:38.805Z,102750.15
2019-04-20T17:44:05.481Z,102753.97
2019-04-20T17:46:28.690Z,102749.42
2019-04-20T17:49:04.299Z,102762.42
2019-04-20T17:51:34.217Z,102754.80
2019-04-20T17:53:52.856Z,102761.36
2019-04-20T17:56:17.438Z,102761.79
2019-04-20T17:58:46.122Z,102759.11
2019-04-20T18:01:49.875Z,102761.48
2019-04-20T18:04:44.335Z,102757.72
2019-04-20T18:06:50.464Z,102761.46
2019-04-20T18:09:35.899Z,102755.19
2019-04-20T18:11:46.666Z,102757.23
2019-04-20T18:14:28.632Z,102759.29
2019-04-20T18:17:04.624Z,102758.84
2019-04-20T18:19:28.299Z,102762.86
2019-04-20T18:22:05.798Z,102765.03
2019-04-20T18:24:56.441Z,102755.67
2019-04-20T18:27:27.557Z,102769.01
2019-04-20T18:29:52.596Z,102770.57
2019-04-20T18:32:20.926Z,102765.96
2019-04-20T18:34:55.495Z,102765.70
2019-04-20T18:37:22.078Z,102768.02
2019-04-20T18:39:57.392Z,102763.43
2019-04-20T18:42:30.690Z,102770.87
2019-04-20T18:45:10.475Z,102765.20
2019-04-20T18:47:39.422Z,102758.37
2019-04-20T18:50:04.218Z,102764.92
2019-04-20T18:52:23.990Z,102757.30
2019-04-20T18:54:55.442Z,102757.89
2019-04-20T18:57:27.179Z,102755.23
2019-04-20T18:59:55.288Z,102760.30
2019-04-20T19:02:29.394Z,102764.84
2019-04-20T19:04:58.126Z,102761.25
2019-04-20T19:07:25.859Z,102763.33
2019-04-20T19:10:02.575Z,102763.12
2019-04-20T19:12:32.547Z,102771.42
2019-04-20T19:15:31.742Z,102767.71
2019-04-20T19:18:00.927Z,102775.45
2019-04-20T19:20:25.002Z,102773.70
2019-04-20T19:22:52.714Z,102773.27
2019-04-20T19:25:26.124Z,102779.54
2019-04-20T19:27:55.643Z,102774.15
2019-04-20T19:30:32.530Z,102782.34
2019-04-20T19:33:13.110Z,102775.89
2019-04-20T19:35:34.046Z,102783.22
2019-04-20T19:38:03.357Z,102774.23
2019-04-20T19:40:34.737Z,102774.93
2019-04-20T19:43:02.381Z,102768.32
2019-04-20T19:46:14.103Z,102771.19
2019-04-20T19:48:09.416Z,102768.25
2019-04-20T19:50:53.118Z,102768.10
2019-04-20T19:53:16.576Z,102769.58
2019-04-20T19:55:39.693Z,102764.64
2019-04-20T19:58:10.678Z,102765.91
2019-04-20T20:00:51.209Z,102765.20
2019-04-20T20:03:17.748Z,102767.82
2019-04-20T20:05:48.319Z,102759.52
2019-04-20T20:08:20.967Z,102753.52
2019-04-20T20:10:46.346Z,102757.75
2019-04-20T20:13:14.959Z,102752.89
2019-04-20T20:15:45.095Z,102749.95
2019-04-20T20:18:30.401Z,102755.66
2019-04-20T20:20:59.649Z,102755.83
2019-04-20T20:23:14.269Z,102755.83
2019-04-20T20:25:46.478Z,102750.63
2019-04-20T20:28:24.123Z,102749.11
2019-04-20T20:30:56.815Z,102745.92
2019-04-20T20:33:32.613Z,102743.30
2019-04-20T20:35:52.905Z,102742.01
2019-04-20T20:38:21.858Z,102745.22
2019-04-20T20:40:54.918Z,102745.67
2019-04-20T20:43:24.218Z,102737.20
2019-04-20T20:45:52.739Z,102745.67
2019-04-20T20:48:32.499Z,102739.65
2019-04-20T20:50:57.310Z,102744.48
2019-04-20T20:53:21.839Z,102738.97
2019-04-20T20:55:47.674Z,102742.11
2019-04-20T20:58:19.210Z,102730.55
2019-04-20T21:00:54.452Z,102733.52
2019-04-20T21:03:22.767Z,102741.22
2019-04-20T21:05:45.046Z,102734.84
2019-04-20T21:08:13.593Z,102741.92
2019-04-20T21:10:43.909Z,102740.34
2019-04-20T21:13:12.663Z,102739.34
2019-04-20T21:15:45.373Z,102732.69
2019-04-20T21:18:33.301Z,102725.05
2019-04-20T21:21:00.608Z,102724.00
2019-04-20T21:23:28.509Z,102718.92
2019-04-20T21:26:03.273Z,102719.22
2019-04-20T21:28:35.722Z,102725.61
2019-04-20T21:31:10.553Z,102714.37
2019-04-20T21:33:34.891Z,102718.34
2019-04-20T21:36:02.832Z,102721.53
2019-04-20T21:38:35.868Z,102716.13
2019-04-20T21:41:05.311Z,102713.20
2019-04-20T21:43:36.327Z,102716.73
2019-04-20T21:46:04.874Z,102708.23
2019-04-20T21:48:47.672Z,102699.76
2019-04-20T21:51:19.155Z,102702.03
2019-04-20T21:53:35.016Z,102707.08
2019-04-20T21:56:02.034Z,102714.52
2019-04-20T21:58:35.453Z,102718.15
2019-04-20T22:01:12.133Z,102710.27
2019-04-20T22:03:32.172Z,102712.02
2019-04-20T22:06:05.042Z,102720.45
2019-04-20T22:08:34.734Z,102712.47
2019-04-20T22:11:03.971Z,102722.41
2019-04-20T22:13:37.703Z,102714.56
2019-04-20T22:16:07.314Z,102711.80
2019-04-20T22:18:47.373Z,102706.91
2019-04-20T22:21:13.113Z,102706.17
2019-04-20T22:23:47.614Z,102711.50
2019-04-20T22:26:16.322Z,102711.20
2019-04-20T22:28:33.843Z,102704.71
2019-04-20T22:31:02.632Z,102706.44
2019-04-20T22:33:38.072Z,102705.52
2019-04-20T22:36:07.793Z,102700.70
2019-04-20T22:38:57.780Z,102700.03
2019-04-20T22:41:25.764Z,102694.73
2019-04-20T22:43:54.693Z,102696.64
2019-04-20T22:46:28.111Z,102694.95
2019-04-20T22:49:14.363Z,102698.77
2019-04-20T22:51:40.216Z,102686.78
2019-04-20T22:54:08.560Z,102688.91
2019-04-20T22:56:39.468Z,102688.81
2019-04-20T22:59:03.702Z,102686.16
2019-04-20T23:01:33.601Z,102683.07
2019-04-20T23:03:54.797Z,102679.04
2019-04-20T23:06:25.345Z,102683.00
2019-04-20T23:08:59.541Z,102680.02
2019-04-20T23:11:28.498Z,102676.44
2019-04-20T23:13:54.322Z,102675.47
2019-04-20T23:16:23.015Z,102669.31
2019-04-20T23:18:51.963Z,102660.16
2019-04-20T23:21:21.599Z,102668.45
2019-04-20T23:23:53.764Z,102663.67
2019-04-20T23:26:27.846Z,102664.13
2019-04-20T23:28:54.083Z,102655.95
2019-04-20T23:31:23.158Z,102651.36
2019-04-20T23:33:49.966Z,102650.43
2019-04-20T23:36:28.580Z,102648.83
2019-04-20T23:38:53.827Z,102645.33
2019-04-20T23:41:19.678Z,102648.20
2019-04-20T23:43:54.898Z,102651.71
2019-04-20T23:46:27.608Z,102639.50
2019-04-20T23:49:18.861Z,102639.72
2019-04-20T23:52:03.619Z,102642.05
2019-04-20T23:54:18.685Z,102635.89
2019-04-20T23:56:41.749Z,102640.89
2019-04-20T23:59:10.678Z,102630.36
